createdAt,value
2022-12-27T00:01:43.071Z,46.45
2022-12-27T00:04:46.349Z,44.67
2022-12-27T00:07:49.359Z,46.65
2022-12-27T00:10:52.203Z,52.13
2022-12-27T00:13:55.084Z,46.72
2022-12-27T00:16:58.091Z,47.33
2022-12-27T00:20:05.350Z,48.70
2022-12-27T00:23:14.010Z,50.00
2022-12-27T00:26:19.948Z,46.72
2022-12-27T00:29:22.840Z,47.67
2022-12-27T00:32:25.877Z,47.53
2022-12-27T00:35:29.023Z,48.47
2022-12-27T00:38:32.646Z,48.17
2022-12-27T00:41:35.536Z,46.78
2022-12-27T00:44:40.031Z,47.47
2022-12-27T00:47:42.944Z,45.17
2022-12-27T00:50:46.229Z,43.13
2022-12-27T00:53:50.441Z,38.40
2022-12-27T00:56:53.429Z,41.15
2022-12-27T00:59:56.581Z,41.83
2022-12-27T01:02:59.489Z,39.58
2022-12-27T01:06:07.707Z,41.00
2022-12-27T01:09:10.717Z,43.47
2022-12-27T01:12:13.553Z,39.83
2022-12-27T01:15:16.463Z,39.97
2022-12-27T01:18:19.387Z,39.13
2022-12-27T01:21:24.800Z,40.05
2022-12-27T01:24:27.877Z,35.22
2022-12-27T01:27:30.778Z,36.95
2022-12-27T01:30:33.975Z,37.60
2022-12-27T01:33:37.339Z,30.33
2022-12-27T01:36:40.172Z,28.40
2022-12-27T01:39:43.052Z,23.67
2022-12-27T01:42:55.857Z,25.80
2022-12-27T01:45:58.875Z,23.60
2022-12-27T01:49:05.088Z,26.05
2022-12-27T01:52:10.751Z,28.08
2022-12-27T01:55:28.861Z,26.73
2022-12-27T01:59:00.415Z,30.05
2022-12-27T02:02:03.998Z,30.55
2022-12-27T02:05:10.647Z,31.55
2022-12-27T02:08:25.582Z,30.88
2022-12-27T02:11:55.158Z,31.15
2022-12-27T02:14:58.785Z,28.55
2022-12-27T02:21:31.905Z,21.98
2022-12-27T02:24:53.125Z,23.77
2022-12-27T02:28:17.869Z,22.60
2022-12-27T02:31:39.220Z,22.02
2022-12-27T02:34:49.237Z,21.70
2022-12-27T02:37:57.419Z,24.92
2022-12-27T02:41:21.803Z,22.35
2022-12-27T02:44:44.376Z,24.48
2022-12-27T02:48:06.845Z,23.65
2022-12-27T02:51:31.374Z,24.50
2022-12-27T02:54:34.370Z,20.90
2022-12-27T03:01:39.194Z,25.60
2022-12-27T03:04:57.337Z,25.40
2022-12-27T03:08:09.853Z,24.05
2022-12-27T03:11:31.833Z,24.60
2022-12-27T03:15:03.139Z,21.23
2022-12-27T03:18:15.334Z,17.30
2022-12-27T03:21:44.878Z,13.57
2022-12-27T03:25:06.837Z,10.05
2022-12-27T03:28:43.611Z,6.80
2022-12-27T03:32:10.847Z,4.15
2022-12-27T03:35:21.271Z,2.33
2022-12-27T03:38:24.784Z,2.95
2022-12-27T03:41:55.455Z,3.78
2022-12-27T03:44:58.459Z,2.35
2022-12-27T03:48:06.448Z,11.30
2022-12-27T03:51:10.143Z,12.32
2022-12-27T03:54:26.385Z,9.05
2022-12-27T03:57:30.044Z,8.68
2022-12-27T04:00:32.971Z,6.35
2022-12-27T04:03:36.274Z,5.68
2022-12-27T04:06:38.862Z,6.47
2022-12-27T04:10:01.443Z,5.05
2022-12-27T04:13:22.623Z,4.12
2022-12-27T04:16:44.472Z,3.37
2022-12-27T04:20:05.850Z,3.45
2022-12-27T04:23:27.687Z,4.53
2022-12-27T04:26:49.220Z,4.50
2022-12-27T04:30:11.580Z,4.35
2022-12-27T04:33:32.895Z,3.95
2022-12-27T04:36:36.144Z,4.82
2022-12-27T04:39:39.035Z,4.37
2022-12-27T04:43:01.760Z,4.78
2022-12-27T04:46:22.997Z,5.35
2022-12-27T04:49:45.693Z,5.05
2022-12-27T04:53:07.728Z,5.87
2022-12-27T04:56:10.867Z,6.05
2022-12-27T04:59:32.446Z,4.97
2022-12-27T05:02:36.095Z,5.70
2022-12-27T05:05:39.557Z,4.87
2022-12-27T05:09:01.900Z,5.60
2022-12-27T05:12:23.256Z,5.57
2022-12-27T05:15:26.451Z,5.45
2022-12-27T05:18:29.318Z,5.75
2022-12-27T05:21:39.803Z,6.30
2022-12-27T05:25:00.999Z,6.50
2022-12-27T05:28:06.490Z,5.45
2022-12-27T05:31:09.992Z,4.93
2022-12-27T05:34:13.212Z,5.00
2022-12-27T05:37:16.139Z,5.40
2022-12-27T05:40:19.282Z,6.18
2022-12-27T05:43:21.915Z,5.35
2022-12-27T05:46:25.739Z,5.12
2022-12-27T05:49:28.821Z,4.32
2022-12-27T05:52:36.193Z,3.83
2022-12-27T05:55:41.830Z,5.62
2022-12-27T05:58:45.220Z,4.65
2022-12-27T06:01:48.014Z,5.05
2022-12-27T06:04:52.131Z,6.05
2022-12-27T06:07:54.717Z,3.87
2022-12-27T06:11:12.510Z,4.22
2022-12-27T06:14:15.150Z,3.12
2022-12-27T06:17:18.494Z,2.92
2022-12-27T06:20:21.770Z,2.53
2022-12-27T06:23:25.044Z,3.15
2022-12-27T06:26:29.818Z,2.72
2022-12-27T06:29:34.239Z,2.85
2022-12-27T06:32:36.806Z,3.50
2022-12-27T06:35:39.951Z,2.83
2022-12-27T06:38:43.630Z,2.60
2022-12-27T06:41:47.003Z,2.47
2022-12-27T06:44:49.598Z,2.55
2022-12-27T06:47:52.873Z,3.35
2022-12-27T06:50:55.959Z,3.62
2022-12-27T06:53:59.391Z,2.42
2022-12-27T06:57:03.842Z,2.90
2022-12-27T07:00:07.704Z,2.47
2022-12-27T07:06:13.448Z,1.97
2022-12-27T07:09:16.083Z,1.73
2022-12-27T07:12:19.817Z,1.20
2022-12-27T07:15:22.390Z,1.30
2022-12-27T07:18:25.550Z,1.73
2022-12-27T07:21:31.299Z,1.15
2022-12-27T07:24:34.531Z,1.17
2022-12-27T07:27:37.420Z,1.25
2022-12-27T07:30:42.679Z,2.58
2022-12-27T07:36:48.421Z,1.03
2022-12-27T07:39:50.962Z,1.73
2022-12-27T07:42:54.141Z,0.95
2022-12-27T07:46:11.171Z,1.20
2022-12-27T07:49:17.804Z,1.67
2022-12-27T07:52:20.801Z,1.00
2022-12-27T07:58:26.617Z,1.42
2022-12-27T08:01:56.438Z,1.23
2022-12-27T08:04:59.472Z,4.03
2022-12-27T08:08:02.908Z,3.75
2022-12-27T08:11:06.878Z,1.20
2022-12-27T08:14:09.809Z,0.70
2022-12-27T08:17:22.938Z,4.10
2022-12-27T08:20:25.976Z,1.52
2022-12-27T08:23:28.922Z,1.15
2022-12-27T08:26:33.026Z,1.08
2022-12-27T08:29:38.874Z,1.27
2022-12-27T08:32:41.755Z,0.90
2022-12-27T08:35:54.270Z,0.85
2022-12-27T08:38:57.980Z,0.77
2022-12-27T08:42:01.428Z,4.47
2022-12-27T08:45:04.995Z,5.37
2022-12-27T08:48:08.343Z,1.08
2022-12-27T08:51:14.537Z,0.90
2022-12-27T08:54:19.853Z,0.70
2022-12-27T08:57:22.733Z,0.60
2022-12-27T09:00:27.102Z,1.12
2022-12-27T09:03:29.972Z,0.70
2022-12-27T09:06:32.930Z,2.12
2022-12-27T09:09:35.967Z,1.12
2022-12-27T09:18:49.021Z,0.70
2022-12-27T09:21:53.355Z,1.20
2022-12-27T09:24:57.385Z,0.55
2022-12-27T09:28:00.308Z,0.62
2022-12-27T09:31:04.041Z,1.12
2022-12-27T09:34:06.982Z,1.05
2022-12-27T09:37:09.957Z,0.60
2022-12-27T09:40:19.249Z,2.40
2022-12-27T09:43:35.018Z,0.93
2022-12-27T09:47:01.846Z,1.70
2022-12-27T09:50:16.742Z,1.00
2022-12-27T09:53:37.913Z,1.55
2022-12-27T09:57:17.743Z,0.68
2022-12-27T10:00:12.874Z,1.45
2022-12-27T10:03:16.032Z,2.00
2022-12-27T10:06:32.798Z,3.25
2022-12-27T10:10:09.038Z,2.03
2022-12-27T10:13:42.870Z,1.17
2022-12-27T10:17:03.789Z,0.90
2022-12-27T10:20:21.657Z,1.55
2022-12-27T10:23:29.737Z,1.10
2022-12-27T10:26:33.108Z,1.52
2022-12-27T10:29:37.037Z,1.08
2022-12-27T10:32:40.049Z,1.45
2022-12-27T10:35:43.147Z,0.62
2022-12-27T10:38:46.062Z,0.70
2022-12-27T10:41:58.175Z,1.37
2022-12-27T10:45:34.326Z,0.82
2022-12-27T10:49:02.624Z,1.25
2022-12-27T10:52:23.041Z,2.55
2022-12-27T10:55:36.250Z,0.90
2022-12-27T10:58:56.547Z,1.50
2022-12-27T11:02:04.031Z,1.17
2022-12-27T11:05:20.933Z,0.85
2022-12-27T11:08:24.486Z,0.98
2022-12-27T11:11:27.456Z,1.48
2022-12-27T11:14:30.611Z,1.05
2022-12-27T11:17:49.211Z,1.77
2022-12-27T11:20:58.124Z,1.12
2022-12-27T11:24:02.723Z,0.90
2022-12-27T11:27:28.313Z,1.80
2022-12-27T11:30:37.523Z,2.22
2022-12-27T11:33:46.142Z,1.20
2022-12-27T11:36:51.634Z,1.52
2022-12-27T11:40:10.633Z,1.10
2022-12-27T11:43:17.790Z,2.05
2022-12-27T11:46:59.508Z,2.47
2022-12-27T11:50:05.743Z,1.02
2022-12-27T11:53:11.532Z,1.92
2022-12-27T11:56:21.866Z,3.03
2022-12-27T11:59:36.013Z,1.02
2022-12-27T12:03:05.014Z,2.55
2022-12-27T12:06:13.359Z,3.10
2022-12-27T12:09:50.005Z,1.35
2022-12-27T12:13:35.637Z,1.37
2022-12-27T12:16:44.573Z,2.65
2022-12-27T12:20:07.585Z,21.58
2022-12-27T12:23:48.189Z,2.72
2022-12-27T12:26:55.981Z,2.10
2022-12-27T12:30:27.849Z,1.30
2022-12-27T12:33:33.554Z,3.15
2022-12-27T12:36:42.256Z,1.00
2022-12-27T12:40:12.327Z,0.95
2022-12-27T12:43:46.164Z,2.12
2022-12-27T12:47:17.192Z,1.17
2022-12-27T12:50:29.063Z,4.00
2022-12-27T12:53:56.117Z,1.52
2022-12-27T12:57:23.503Z,1.30
2022-12-27T13:00:56.666Z,3.08
2022-12-27T13:04:18.484Z,1.37
2022-12-27T13:07:51.809Z,2.17
2022-12-27T13:14:40.900Z,1.67
2022-12-27T13:18:10.334Z,3.92
2022-12-27T13:21:47.353Z,2.75
2022-12-27T13:25:18.473Z,2.15
2022-12-27T13:28:27.513Z,1.80
2022-12-27T13:32:02.193Z,2.05
2022-12-27T13:35:28.576Z,2.10
2022-12-27T13:38:43.976Z,2.62
2022-12-27T13:42:29.243Z,6.57
2022-12-27T13:46:09.969Z,1.92
2022-12-27T13:49:18.997Z,1.50
2022-12-27T13:52:34.031Z,2.22
2022-12-27T13:55:39.922Z,1.62
2022-12-27T13:59:13.826Z,2.75
2022-12-27T14:02:32.058Z,2.40
2022-12-27T14:05:41.575Z,2.28
2022-12-27T14:09:05.229Z,2.35
2022-12-27T14:12:20.435Z,2.42
2022-12-27T14:15:30.500Z,2.85
2022-12-27T14:19:04.871Z,1.80
2022-12-27T14:22:25.761Z,2.30
2022-12-27T14:25:56.858Z,2.42
2022-12-27T14:29:28.819Z,1.73
2022-12-27T14:32:50.112Z,2.42
2022-12-27T14:36:20.389Z,2.55
2022-12-27T14:40:03.331Z,2.72
2022-12-27T14:43:43.758Z,2.85
2022-12-27T14:47:24.560Z,3.62
2022-12-27T14:50:53.335Z,2.55
2022-12-27T14:54:11.635Z,2.05
2022-12-27T14:57:34.366Z,2.17
2022-12-27T15:01:00.867Z,1.37
2022-12-27T15:04:28.510Z,1.35
2022-12-27T15:07:51.658Z,1.70
2022-12-27T15:10:54.218Z,1.60
2022-12-27T15:14:17.625Z,1.65
2022-12-27T15:17:35.570Z,1.92
2022-12-27T15:20:58.779Z,2.62
2022-12-27T15:24:24.395Z,2.15
2022-12-27T15:27:43.204Z,2.62
2022-12-27T15:31:12.748Z,2.47
2022-12-27T15:34:42.338Z,1.67
2022-12-27T15:37:47.968Z,3.17
2022-12-27T15:41:09.392Z,2.47
2022-12-27T15:44:23.998Z,2.05
2022-12-27T15:47:42.064Z,2.45
2022-12-27T15:51:06.571Z,1.85
2022-12-27T15:54:24.335Z,3.70
2022-12-27T15:58:01.892Z,1.98
2022-12-27T16:01:23.960Z,1.62
2022-12-27T16:05:02.306Z,3.47
2022-12-27T16:08:05.135Z,4.35
2022-12-27T16:11:11.339Z,5.65
2022-12-27T16:14:29.149Z,4.55
2022-12-27T16:17:46.131Z,8.43
2022-12-27T16:21:04.452Z,5.53
2022-12-27T16:24:16.028Z,8.00
2022-12-27T16:27:29.455Z,6.03
2022-12-27T16:30:48.639Z,3.65
2022-12-27T16:33:52.751Z,5.30
2022-12-27T16:36:59.424Z,5.68
2022-12-27T16:40:31.628Z,4.28
2022-12-27T16:43:44.104Z,4.30
2022-12-27T16:46:56.320Z,4.43
2022-12-27T16:49:59.146Z,4.55
2022-12-27T16:53:30.076Z,4.20
2022-12-27T16:56:35.914Z,3.55
2022-12-27T17:00:01.322Z,3.90
2022-12-27T17:03:36.740Z,3.28
2022-12-27T17:06:39.985Z,2.30
2022-12-27T17:09:44.215Z,2.53
2022-12-27T17:12:53.327Z,2.42
2022-12-27T17:16:06.215Z,2.72
2022-12-27T17:19:30.265Z,3.08
2022-12-27T17:25:51.988Z,2.97
2022-12-27T17:28:57.896Z,4.43
2022-12-27T17:32:23.788Z,2.60
2022-12-27T17:35:35.605Z,2.70
2022-12-27T17:38:57.413Z,4.32
2022-12-27T17:42:58.432Z,3.10
2022-12-27T17:46:32.494Z,2.50
2022-12-27T17:49:36.250Z,2.30
2022-12-27T17:52:58.148Z,3.87
2022-12-27T17:56:41.306Z,3.17
2022-12-27T17:59:49.169Z,4.93
2022-12-27T18:02:54.538Z,4.90
2022-12-27T18:05:58.710Z,5.00
2022-12-27T18:09:02.181Z,4.25
2022-12-27T18:12:28.456Z,3.53
2022-12-27T18:15:37.326Z,4.20
2022-12-27T18:18:44.930Z,4.85
2022-12-27T18:21:56.108Z,4.80
2022-12-27T18:25:01.111Z,5.70
2022-12-27T18:28:34.494Z,9.05
2022-12-27T18:34:51.843Z,6.40
2022-12-27T18:37:55.821Z,3.53
2022-12-27T18:41:02.961Z,8.20
2022-12-27T18:44:16.921Z,4.70
2022-12-27T18:47:27.117Z,4.68
2022-12-27T18:50:33.848Z,10.55
2022-12-27T18:53:39.434Z,6.68
2022-12-27T18:56:43.237Z,8.15
2022-12-27T19:00:00.474Z,15.38
2022-12-27T19:03:16.448Z,7.53
2022-12-27T19:06:19.515Z,10.73
2022-12-27T19:09:26.879Z,8.85
2022-12-27T19:12:38.437Z,7.35
2022-12-27T19:15:44.233Z,7.93
2022-12-27T19:18:51.711Z,6.57
2022-12-27T19:21:55.470Z,10.73
2022-12-27T19:25:00.351Z,7.57
2022-12-27T19:28:12.438Z,9.30
2022-12-27T19:31:21.904Z,10.40
2022-12-27T19:34:29.624Z,10.38
2022-12-27T19:37:33.681Z,8.23
2022-12-27T19:40:36.931Z,9.88
2022-12-27T19:43:43.464Z,10.97
2022-12-27T19:47:06.760Z,9.13
2022-12-27T19:50:10.319Z,10.63
2022-12-27T19:53:17.629Z,8.45
2022-12-27T19:56:22.998Z,8.30
2022-12-27T19:59:27.180Z,8.48
2022-12-27T20:02:30.205Z,9.63
2022-12-27T20:06:14.643Z,8.23
2022-12-27T20:08:57.250Z,7.47
2022-12-27T20:15:03.641Z,5.82
2022-12-27T20:18:07.550Z,5.57
2022-12-27T20:21:18.219Z,8.82
2022-12-27T20:24:21.419Z,6.40
2022-12-27T20:27:24.300Z,7.87
2022-12-27T20:33:29.933Z,7.50
2022-12-27T20:36:33.621Z,11.98
2022-12-27T20:39:36.212Z,8.68
2022-12-27T20:42:39.431Z,9.30
2022-12-27T20:45:42.324Z,10.13
2022-12-27T20:48:47.390Z,8.75
2022-12-27T20:51:50.256Z,9.90
2022-12-27T20:54:53.880Z,13.40
2022-12-27T20:57:56.811Z,9.40
2022-12-27T21:01:26.508Z,10.23
2022-12-27T21:04:29.348Z,10.65
2022-12-27T21:07:32.701Z,8.57
2022-12-27T21:10:35.757Z,10.73
2022-12-27T21:13:40.738Z,11.35
2022-12-27T21:16:43.463Z,8.90
2022-12-27T21:19:46.735Z,7.93
2022-12-27T21:22:49.473Z,11.37
2022-12-27T21:25:52.990Z,11.60
2022-12-27T21:28:56.777Z,10.25
2022-12-27T21:32:01.544Z,9.52
2022-12-27T21:35:04.591Z,10.00
2022-12-27T21:38:07.808Z,11.50
2022-12-27T21:41:14.263Z,8.67
2022-12-27T21:44:17.469Z,8.55
2022-12-27T21:47:20.004Z,7.17
2022-12-27T21:50:23.281Z,7.00
2022-12-27T21:53:25.915Z,7.97
2022-12-27T21:56:29.679Z,6.05
2022-12-27T21:59:32.234Z,6.45
2022-12-27T22:02:35.436Z,7.55
2022-12-27T22:05:38.385Z,6.47
2022-12-27T22:08:42.624Z,5.35
2022-12-27T22:11:45.842Z,5.35
2022-12-27T22:14:48.669Z,6.53
2022-12-27T22:17:51.595Z,6.75
2022-12-27T22:20:59.798Z,10.88
2022-12-27T22:24:04.152Z,8.60
2022-12-27T22:27:07.006Z,9.57
2022-12-27T22:30:10.397Z,9.35
2022-12-27T22:36:24.677Z,8.38
2022-12-27T22:39:29.053Z,8.95
2022-12-27T22:42:31.929Z,7.60
2022-12-27T22:45:34.725Z,7.45
2022-12-27T22:48:39.245Z,8.90
2022-12-27T22:51:43.461Z,7.15
2022-12-27T22:55:05.252Z,6.47
2022-12-27T22:58:09.966Z,8.93
2022-12-27T23:01:13.995Z,7.72
2022-12-27T23:04:17.059Z,8.82
2022-12-27T23:07:21.166Z,8.48
2022-12-27T23:13:47.431Z,6.65
2022-12-27T23:16:50.423Z,11.15
2022-12-27T23:19:53.272Z,7.20
2022-12-27T23:22:58.605Z,6.45
2022-12-27T23:26:07.603Z,8.05
2022-12-27T23:29:14.785Z,5.90
2022-12-27T23:32:17.635Z,7.20
2022-12-27T23:35:20.467Z,8.30
2022-12-27T23:38:23.505Z,5.93
2022-12-27T23:41:26.588Z,8.00
2022-12-27T23:44:33.916Z,6.32
2022-12-27T23:47:37.818Z,9.40
2022-12-27T23:50:40.742Z,9.15
2022-12-27T23:53:45.157Z,6.47
2022-12-27T23:56:47.966Z,9.15
2022-12-27T23:59:51.816Z,8.25
